createdAt,value
2023-11-05T00:00:39.478Z,85.64
2023-11-05T00:03:06.287Z,88.03
2023-11-05T00:05:33.012Z,86.82
2023-11-05T00:08:00.420Z,87.70
2023-11-05T00:10:27.157Z,88.89
2023-11-05T00:12:53.856Z,88.83
2023-11-05T00:15:20.564Z,88.42
2023-11-05T00:17:47.279Z,88.31
2023-11-05T00:20:14.999Z,89.07
2023-11-05T00:22:41.809Z,89.17
2023-11-05T00:25:09.494Z,88.84
2023-11-05T00:27:38.094Z,88.27
2023-11-05T00:30:05.574Z,88.25
2023-11-05T00:32:32.464Z,88.78
2023-11-05T00:34:59.242Z,87.48
2023-11-05T00:37:27.034Z,87.84
2023-11-05T00:39:53.718Z,88.99
2023-11-05T00:42:20.505Z,90.16
2023-11-05T00:44:47.203Z,88.52
2023-11-05T00:47:13.900Z,87.83
2023-11-05T00:49:40.708Z,92.58
2023-11-05T00:52:07.420Z,92.93
2023-11-05T00:54:34.193Z,92.70
2023-11-05T00:57:00.977Z,91.74
2023-11-05T00:59:27.691Z,94.33
2023-11-05T01:01:54.414Z,93.74
2023-11-05T01:04:21.254Z,93.74
2023-11-05T01:06:48.116Z,94.80
2023-11-05T01:09:14.716Z,94.74
2023-11-05T01:11:41.894Z,95.17
2023-11-05T01:14:08.651Z,94.86
2023-11-05T01:16:35.434Z,94.35
2023-11-05T01:19:02.241Z,96.17
2023-11-05T01:21:29.014Z,96.34
2023-11-05T01:23:55.774Z,95.65
2023-11-05T01:26:22.509Z,95.86
2023-11-05T01:28:50.097Z,96.10
2023-11-05T01:31:17.185Z,95.60
2023-11-05T01:33:44.573Z,95.09
2023-11-05T01:36:11.607Z,96.05
2023-11-05T01:38:38.344Z,95.82
2023-11-05T01:41:05.283Z,93.57
2023-11-05T01:43:32.111Z,94.24
2023-11-05T01:45:59.061Z,94.14
2023-11-05T01:48:25.844Z,92.96
2023-11-05T01:50:52.515Z,92.41
2023-11-05T01:53:19.199Z,92.15
2023-11-05T01:55:45.954Z,91.72
2023-11-05T01:58:12.679Z,92.09
2023-11-05T02:00:39.500Z,92.19
2023-11-05T02:03:06.205Z,90.63
2023-11-05T02:05:33.210Z,92.11
2023-11-05T02:08:00.018Z,91.55
2023-11-05T02:10:26.820Z,93.51
2023-11-05T02:12:59.503Z,92.02
2023-11-05T02:15:26.289Z,93.33
2023-11-05T02:17:53.032Z,94.38
2023-11-05T02:20:19.982Z,94.41
2023-11-05T02:22:47.863Z,93.66
2023-11-05T02:25:20.144Z,91.95
2023-11-05T02:27:49.232Z,93.18
2023-11-05T02:30:17.797Z,93.96
2023-11-05T02:32:44.518Z,92.94
2023-11-05T02:35:11.349Z,92.68
2023-11-05T02:37:38.230Z,88.39
2023-11-05T02:40:07.287Z,90.17
2023-11-05T02:42:34.069Z,91.77
2023-11-05T02:45:00.722Z,93.13
2023-11-05T02:47:27.486Z,93.70
2023-11-05T02:49:54.188Z,93.22
2023-11-05T02:52:20.892Z,95.29
2023-11-05T02:54:47.571Z,95.75
2023-11-05T02:57:14.176Z,94.45
2023-11-05T02:59:40.919Z,93.14
2023-11-05T03:02:07.667Z,92.59
2023-11-05T03:04:34.704Z,94.16
2023-11-05T03:07:01.923Z,95.75
2023-11-05T03:09:28.727Z,97.02
2023-11-05T03:11:55.628Z,97.05
2023-11-05T03:14:22.444Z,96.03
2023-11-05T03:16:49.647Z,95.05
2023-11-05T03:19:16.398Z,93.82
2023-11-05T03:21:43.197Z,94.24
2023-11-05T03:24:10.047Z,92.52
2023-11-05T03:26:36.922Z,92.50
2023-11-05T03:29:04.398Z,95.67
2023-11-05T03:31:32.378Z,95.48
2023-11-05T03:33:59.288Z,95.43
2023-11-05T03:36:26.059Z,95.99
2023-11-05T03:38:52.808Z,96.28
2023-11-05T03:41:19.464Z,95.13
2023-11-05T03:43:46.226Z,93.75
2023-11-05T03:46:14.606Z,94.66
2023-11-05T03:48:44.593Z,94.46
2023-11-05T03:51:15.150Z,93.92
2023-11-05T03:53:42.061Z,94.59
2023-11-05T03:56:09.602Z,92.41
2023-11-05T03:58:38.484Z,92.56
2023-11-05T04:01:05.734Z,92.43
2023-11-05T04:03:33.350Z,92.14
2023-11-05T04:06:00.246Z,92.81
2023-11-05T04:08:27.585Z,93.54
2023-11-05T04:10:54.688Z,92.36
2023-11-05T04:13:21.328Z,91.74
2023-11-05T04:15:48.027Z,92.12
2023-11-05T04:18:14.788Z,92.08
2023-11-05T04:20:41.835Z,92.01
2023-11-05T04:23:08.490Z,91.12
2023-11-05T04:25:35.257Z,91.13
2023-11-05T04:28:02.059Z,90.95
2023-11-05T04:30:28.741Z,92.88
2023-11-05T04:32:55.580Z,92.53
2023-11-05T04:35:22.351Z,92.97
2023-11-05T04:37:49.085Z,92.90
2023-11-05T04:40:15.926Z,91.79
2023-11-05T04:42:42.686Z,92.88
2023-11-05T04:45:11.006Z,91.88
2023-11-05T04:47:37.723Z,92.34
2023-11-05T04:50:04.747Z,93.04
2023-11-05T04:52:31.616Z,92.01
2023-11-05T04:55:00.513Z,93.15
2023-11-05T04:57:27.720Z,93.17
2023-11-05T04:59:54.429Z,93.02
2023-11-05T05:02:21.066Z,92.62
2023-11-05T05:04:48.384Z,92.31
2023-11-05T05:07:15.876Z,92.67
2023-11-05T05:09:42.826Z,92.51
2023-11-05T05:12:09.664Z,91.02
2023-11-05T05:14:36.437Z,92.46
2023-11-05T05:17:03.670Z,91.48
2023-11-05T05:19:30.432Z,91.70
2023-11-05T05:21:57.181Z,91.49
2023-11-05T05:24:24.906Z,91.75
2023-11-05T05:26:51.810Z,91.33
2023-11-05T05:29:18.486Z,91.14
2023-11-05T05:31:45.252Z,90.49
2023-11-05T05:34:12.060Z,90.83
2023-11-05T05:36:41.878Z,89.65
2023-11-05T05:39:08.767Z,90.31
2023-11-05T05:41:35.508Z,87.90
2023-11-05T05:44:02.307Z,88.41
2023-11-05T05:46:29.075Z,90.02
2023-11-05T05:48:55.999Z,89.22
2023-11-05T05:51:24.072Z,86.51
2023-11-05T05:53:51.106Z,87.01
2023-11-05T05:56:17.850Z,88.33
2023-11-05T05:58:44.694Z,88.04
2023-11-05T06:01:11.850Z,87.57
2023-11-05T06:03:38.758Z,88.80
2023-11-05T06:06:05.997Z,89.80
2023-11-05T06:08:32.800Z,90.32
2023-11-05T06:10:59.448Z,89.80
2023-11-05T06:13:26.534Z,91.35
2023-11-05T06:15:53.798Z,92.21
2023-11-05T06:18:21.354Z,91.60
2023-11-05T06:20:48.367Z,92.50
2023-11-05T06:23:15.003Z,91.50
2023-11-05T06:25:42.471Z,90.30
2023-11-05T06:28:09.558Z,89.97
2023-11-05T06:30:36.299Z,91.36
2023-11-05T06:33:03.092Z,91.32
2023-11-05T06:35:29.784Z,90.86
2023-11-05T06:37:56.440Z,90.39
2023-11-05T06:40:23.507Z,88.76
2023-11-05T06:42:50.350Z,89.13
2023-11-05T06:45:17.494Z,89.05
2023-11-05T06:47:44.333Z,87.92
2023-11-05T06:50:11.258Z,88.18
2023-11-05T06:52:40.758Z,88.81
2023-11-05T06:55:08.452Z,89.02
2023-11-05T06:57:38.369Z,88.18
2023-11-05T07:00:07.209Z,87.77
2023-11-05T07:02:37.009Z,88.89
2023-11-05T07:05:06.216Z,87.87
2023-11-05T07:07:33.222Z,88.04
2023-11-05T07:10:01.472Z,87.17
2023-11-05T07:12:28.614Z,87.39
2023-11-05T07:14:55.488Z,87.25
2023-11-05T07:17:22.351Z,86.45
2023-11-05T07:19:49.053Z,86.88
2023-11-05T07:22:15.978Z,84.52
2023-11-05T07:24:42.704Z,85.02
2023-11-05T07:27:09.801Z,84.63
2023-11-05T07:29:36.623Z,84.98
2023-11-05T07:32:04.082Z,82.81
2023-11-05T07:34:30.944Z,84.32
2023-11-05T07:36:58.394Z,84.22
2023-11-05T07:39:25.054Z,83.90
2023-11-05T07:41:51.878Z,82.06
2023-11-05T07:44:19.523Z,80.38
2023-11-05T07:46:46.278Z,81.84
2023-11-05T07:49:13.007Z,80.42
2023-11-05T07:51:39.796Z,82.94
2023-11-05T07:54:06.863Z,81.51
2023-11-05T07:56:33.688Z,81.13
2023-11-05T07:59:00.435Z,81.03
2023-11-05T08:01:27.185Z,81.32
2023-11-05T08:03:53.976Z,81.30
2023-11-05T08:06:20.652Z,77.17
2023-11-05T08:08:47.820Z,76.86
2023-11-05T08:11:14.530Z,76.37
2023-11-05T08:13:41.290Z,75.71
2023-11-05T08:16:08.498Z,74.68
2023-11-05T08:18:35.854Z,74.10
2023-11-05T08:21:03.998Z,71.05
2023-11-05T08:23:30.715Z,70.08
2023-11-05T08:25:57.836Z,70.23
2023-11-05T08:28:26.466Z,68.54
2023-11-05T08:30:54.386Z,70.40
2023-11-05T08:33:21.718Z,69.37
2023-11-05T08:35:48.692Z,70.38
2023-11-05T08:38:15.440Z,70.25
2023-11-05T08:40:42.308Z,68.16
2023-11-05T08:43:08.996Z,69.86
2023-11-05T08:45:45.498Z,70.66
2023-11-05T08:48:17.290Z,68.38
2023-11-05T08:50:44.325Z,68.67
2023-11-05T08:53:10.984Z,68.65
2023-11-05T08:55:38.246Z,66.41
2023-11-05T08:58:05.136Z,66.40
2023-11-05T09:00:36.347Z,67.93
2023-11-05T09:03:03.595Z,66.16
2023-11-05T09:05:30.294Z,67.29
2023-11-05T09:07:59.883Z,67.69
2023-11-05T09:10:28.030Z,64.44
2023-11-05T09:12:55.309Z,65.52
2023-11-05T09:15:22.166Z,66.42
2023-11-05T09:17:49.019Z,65.37
2023-11-05T09:20:15.849Z,66.29
2023-11-05T09:22:43.080Z,63.75
2023-11-05T09:25:10.270Z,65.80
2023-11-05T09:27:40.347Z,64.77
2023-11-05T09:30:13.283Z,66.71
2023-11-05T09:32:40.757Z,68.72
2023-11-05T09:35:08.958Z,66.18
2023-11-05T09:37:36.695Z,66.66
2023-11-05T09:40:04.309Z,62.68
2023-11-05T09:42:31.498Z,62.16
2023-11-05T09:44:59.354Z,62.13
2023-11-05T09:47:51.305Z,59.75
2023-11-05T09:50:18.078Z,60.86
2023-11-05T09:52:44.865Z,60.29
2023-11-05T09:55:11.588Z,60.37
2023-11-05T09:57:38.476Z,61.11
2023-11-05T10:00:15.629Z,56.82
2023-11-05T10:03:04.176Z,57.31
2023-11-05T10:05:38.717Z,58.90
2023-11-05T10:08:09.850Z,55.43
2023-11-05T10:10:40.868Z,57.81
2023-11-05T10:13:07.530Z,59.07
2023-11-05T10:15:35.028Z,57.48
2023-11-05T10:18:01.948Z,56.04
2023-11-05T10:20:31.253Z,56.49
2023-11-05T10:23:04.637Z,54.59
2023-11-05T10:25:31.650Z,57.20
2023-11-05T10:27:59.186Z,56.92
2023-11-05T10:30:27.079Z,55.49
2023-11-05T10:32:54.275Z,56.51
2023-11-05T10:35:22.274Z,54.89
2023-11-05T10:37:49.813Z,54.79
2023-11-05T10:40:17.844Z,54.38
2023-11-05T10:42:45.882Z,52.93
2023-11-05T10:45:16.463Z,53.08
2023-11-05T10:47:43.477Z,52.92
2023-11-05T10:50:13.216Z,52.91
2023-11-05T10:52:46.359Z,53.44
2023-11-05T10:55:13.401Z,52.74
2023-11-05T10:57:40.230Z,51.12
2023-11-05T11:00:12.284Z,52.91
2023-11-05T11:02:48.410Z,51.08
2023-11-05T11:05:21.296Z,53.17
2023-11-05T11:07:48.318Z,52.57
2023-11-05T11:10:21.372Z,52.49
2023-11-05T11:12:48.131Z,52.14
2023-11-05T11:15:34.478Z,52.89
2023-11-05T11:18:04.423Z,51.72
2023-11-05T11:20:32.974Z,52.41
2023-11-05T11:23:04.175Z,53.04
2023-11-05T11:25:34.602Z,51.91
2023-11-05T11:28:01.409Z,51.00
2023-11-05T11:30:28.115Z,51.88
2023-11-05T11:32:55.127Z,51.81
2023-11-05T11:35:22.325Z,51.61
2023-11-05T11:37:49.260Z,52.73
2023-11-05T11:40:16.529Z,52.19
2023-11-05T11:42:43.379Z,51.64
2023-11-05T11:45:10.954Z,50.90
2023-11-05T11:47:40.565Z,51.03
2023-11-05T11:50:08.233Z,50.07
2023-11-05T11:53:08.705Z,50.26
2023-11-05T11:55:35.551Z,52.93
2023-11-05T11:58:02.440Z,49.66
2023-11-05T12:00:29.238Z,49.95
2023-11-05T12:02:58.755Z,53.33
2023-11-05T12:05:25.497Z,52.67
2023-11-05T12:07:52.285Z,52.34
2023-11-05T12:10:20.174Z,51.15
2023-11-05T12:12:53.441Z,51.33
2023-11-05T12:15:20.639Z,51.87
2023-11-05T12:17:50.263Z,51.41
2023-11-05T12:20:17.053Z,52.09
2023-11-05T12:22:46.601Z,52.08
2023-11-05T12:25:13.615Z,49.86
2023-11-05T12:27:47.381Z,49.93
2023-11-05T12:30:20.347Z,50.76
2023-11-05T12:32:47.202Z,52.28
2023-11-05T12:35:13.848Z,53.11
2023-11-05T12:37:40.624Z,51.79
2023-11-05T12:40:07.911Z,51.46
2023-11-05T12:42:34.885Z,51.11
2023-11-05T12:45:02.801Z,51.67
2023-11-05T12:47:29.572Z,51.49
2023-11-05T12:49:57.458Z,51.77
2023-11-05T12:52:27.598Z,52.22
2023-11-05T12:54:54.344Z,53.22
2023-11-05T12:57:20.995Z,52.44
2023-11-05T12:59:47.783Z,52.92
2023-11-05T13:02:14.639Z,52.00
2023-11-05T13:04:41.658Z,51.69
2023-11-05T13:07:08.928Z,49.55
2023-11-05T13:09:35.777Z,49.38
2023-11-05T13:12:05.753Z,49.10
2023-11-05T13:14:32.667Z,48.35
2023-11-05T13:17:00.215Z,48.52
2023-11-05T13:19:27.074Z,47.89
2023-11-05T13:21:53.839Z,48.89
2023-11-05T13:24:20.618Z,49.20
2023-11-05T13:26:47.430Z,48.27
2023-11-05T13:29:14.096Z,48.39
2023-11-05T13:31:40.715Z,49.72
2023-11-05T13:34:07.532Z,49.59
2023-11-05T13:36:34.313Z,49.90
2023-11-05T13:39:02.137Z,49.72
2023-11-05T13:41:29.277Z,48.98
2023-11-05T13:43:56.144Z,49.27
2023-11-05T13:46:22.985Z,48.97
2023-11-05T13:48:50.473Z,49.80
2023-11-05T13:51:17.276Z,49.98
2023-11-05T13:53:43.983Z,49.65
2023-11-05T13:56:10.653Z,50.75
2023-11-05T13:58:38.146Z,51.76
2023-11-05T14:01:04.807Z,51.84
2023-11-05T14:03:31.510Z,52.62
2023-11-05T14:05:58.476Z,52.59
2023-11-05T14:08:25.331Z,53.30
2023-11-05T14:10:53.004Z,53.81
2023-11-05T14:13:19.762Z,54.72
2023-11-05T14:15:46.482Z,55.37
2023-11-05T14:18:13.300Z,53.40
2023-11-05T14:20:40.147Z,54.78
2023-11-05T14:23:12.575Z,54.09
2023-11-05T14:25:40.451Z,54.07
2023-11-05T14:28:07.274Z,54.60
2023-11-05T14:30:33.983Z,53.19
2023-11-05T14:33:01.907Z,54.74
2023-11-05T14:35:29.767Z,55.03
2023-11-05T14:37:56.904Z,56.50
2023-11-05T14:40:25.980Z,56.87
2023-11-05T14:42:57.409Z,56.62
2023-11-05T14:45:27.979Z,57.36
2023-11-05T14:47:56.358Z,56.86
2023-11-05T14:50:23.267Z,57.11
2023-11-05T14:52:50.096Z,56.87
2023-11-05T14:55:16.859Z,57.97
2023-11-05T14:57:43.626Z,57.47
2023-11-05T15:00:12.604Z,55.65
2023-11-05T15:02:41.368Z,54.96
2023-11-05T15:05:13.035Z,54.10
2023-11-05T15:07:41.170Z,54.52
2023-11-05T15:10:14.403Z,54.69
2023-11-05T15:12:41.700Z,55.39
2023-11-05T15:15:08.841Z,55.90
2023-11-05T15:17:36.742Z,55.87
2023-11-05T15:20:09.063Z,55.50
2023-11-05T15:22:35.939Z,54.95
2023-11-05T15:25:02.662Z,53.79
2023-11-05T15:27:29.515Z,54.18
2023-11-05T15:29:58.230Z,53.96
2023-11-05T15:32:26.113Z,55.13
2023-11-05T15:34:57.597Z,55.24
2023-11-05T15:37:24.305Z,53.99
2023-11-05T15:39:54.208Z,54.29
2023-11-05T15:42:21.170Z,55.04
2023-11-05T15:44:50.297Z,53.67
2023-11-05T15:47:17.531Z,54.75
2023-11-05T15:49:45.694Z,54.50
2023-11-05T15:52:12.519Z,54.10
2023-11-05T15:54:46.390Z,53.93
2023-11-05T15:57:13.219Z,55.93
2023-11-05T15:59:40.310Z,55.32
2023-11-05T16:02:08.554Z,56.80
2023-11-05T16:04:37.803Z,57.47
2023-11-05T16:07:04.880Z,57.23
2023-11-05T16:09:32.605Z,58.37
2023-11-05T16:12:00.211Z,58.32
2023-11-05T16:14:32.065Z,57.78
2023-11-05T16:17:01.613Z,57.02
2023-11-05T16:19:28.472Z,57.51
2023-11-05T16:21:55.228Z,58.57
2023-11-05T16:24:21.970Z,58.41
2023-11-05T16:26:48.821Z,58.54
2023-11-05T16:29:15.510Z,58.93
2023-11-05T16:31:42.246Z,58.39
2023-11-05T16:34:08.997Z,58.48
2023-11-05T16:36:36.984Z,59.08
2023-11-05T16:39:03.985Z,59.14
2023-11-05T16:41:31.914Z,59.43
2023-11-05T16:43:58.895Z,56.86
2023-11-05T16:46:25.716Z,57.48
2023-11-05T16:48:52.533Z,56.47
2023-11-05T16:51:20.015Z,56.40
2023-11-05T16:53:46.938Z,58.34
2023-11-05T16:56:13.781Z,59.30
2023-11-05T16:58:42.991Z,56.91
2023-11-05T17:01:14.146Z,58.82
2023-11-05T17:03:40.932Z,58.66
2023-11-05T17:06:07.860Z,59.02
2023-11-05T17:08:37.333Z,58.66
2023-11-05T17:11:05.466Z,57.47
2023-11-05T17:13:32.261Z,57.75
2023-11-05T17:15:59.010Z,58.09
2023-11-05T17:18:25.780Z,59.17
2023-11-05T17:20:52.670Z,58.31
2023-11-05T17:23:19.401Z,58.66
2023-11-05T17:25:46.114Z,59.02
2023-11-05T17:28:12.906Z,59.77
2023-11-05T17:30:39.655Z,59.65
2023-11-05T17:33:07.351Z,59.98
2023-11-05T17:35:34.124Z,60.09
2023-11-05T17:38:00.836Z,59.15
2023-11-05T17:40:28.705Z,59.07
2023-11-05T17:42:56.273Z,59.44
2023-11-05T17:45:23.137Z,59.64
2023-11-05T17:47:49.901Z,58.56
2023-11-05T17:50:16.811Z,59.39
2023-11-05T17:52:43.931Z,58.93
2023-11-05T17:55:11.249Z,60.01
2023-11-05T17:57:37.949Z,60.46
2023-11-05T18:00:05.579Z,59.16
2023-11-05T18:02:32.472Z,58.89
2023-11-05T18:04:59.283Z,59.53
2023-11-05T18:07:26.014Z,59.96
2023-11-05T18:09:52.737Z,59.15
2023-11-05T18:12:39.402Z,60.24
2023-11-05T18:15:07.102Z,60.03
2023-11-05T18:17:33.910Z,60.30
2023-11-05T18:20:00.810Z,60.91
2023-11-05T18:22:27.600Z,61.26
2023-11-05T18:24:54.282Z,61.60
2023-11-05T18:27:20.947Z,62.01
2023-11-05T18:29:47.648Z,61.85
2023-11-05T18:32:14.386Z,62.55
2023-11-05T18:34:41.128Z,61.49
2023-11-05T18:37:09.069Z,60.90
2023-11-05T18:39:35.856Z,62.03
2023-11-05T18:42:02.762Z,61.87
2023-11-05T18:44:29.866Z,60.64
2023-11-05T18:46:56.646Z,61.16
2023-11-05T18:49:23.746Z,61.09
2023-11-05T18:51:50.536Z,60.38
2023-11-05T18:54:17.848Z,60.50
2023-11-05T18:56:44.750Z,61.37
2023-11-05T18:59:11.436Z,61.37
2023-11-05T19:01:38.500Z,60.24
2023-11-05T19:04:05.644Z,60.51
2023-11-05T19:06:32.572Z,60.64
2023-11-05T19:08:59.239Z,61.22
2023-11-05T19:11:26.049Z,61.07
2023-11-05T19:14:02.722Z,60.67
2023-11-05T19:16:37.458Z,61.06
2023-11-05T19:19:04.185Z,61.80
2023-11-05T19:21:30.969Z,60.91
2023-11-05T19:23:57.639Z,61.11
2023-11-05T19:26:24.565Z,61.61
2023-11-05T19:28:51.333Z,60.79
2023-11-05T19:31:17.955Z,60.46
2023-11-05T19:33:44.748Z,61.06
2023-11-05T19:36:12.168Z,59.34
2023-11-05T19:38:38.903Z,59.92
2023-11-05T19:41:05.650Z,59.13
2023-11-05T19:43:32.344Z,59.16
2023-11-05T19:45:59.086Z,59.27
2023-11-05T19:48:25.775Z,59.82
2023-11-05T19:50:53.829Z,59.41
2023-11-05T19:53:20.590Z,58.54
2023-11-05T19:55:48.039Z,59.22
2023-11-05T19:58:14.711Z,57.30
2023-11-05T20:00:41.520Z,57.78
2023-11-05T20:03:08.317Z,57.92
2023-11-05T20:05:35.060Z,58.43
2023-11-05T20:08:02.003Z,59.18
2023-11-05T20:10:28.745Z,59.65
2023-11-05T20:12:56.086Z,59.18
2023-11-05T20:15:22.741Z,59.73
2023-11-05T20:17:49.448Z,58.69
2023-11-05T20:20:16.996Z,59.19
2023-11-05T20:22:43.864Z,58.71
2023-11-05T20:25:10.598Z,58.64
2023-11-05T20:27:37.924Z,58.86
2023-11-05T20:30:05.106Z,58.19
2023-11-05T20:32:32.646Z,58.31
2023-11-05T20:34:59.351Z,59.00
2023-11-05T20:37:26.229Z,60.07
2023-11-05T20:39:52.916Z,59.29
2023-11-05T20:42:20.848Z,59.68
2023-11-05T20:44:47.626Z,60.17
2023-11-05T20:47:14.393Z,59.55
2023-11-05T20:49:41.294Z,60.67
2023-11-05T20:52:07.985Z,60.68
2023-11-05T20:54:37.801Z,60.09
2023-11-05T20:57:05.570Z,59.63
2023-11-05T20:59:33.204Z,59.94
2023-11-05T21:02:00.212Z,60.04
2023-11-05T21:04:28.903Z,60.35
2023-11-05T21:06:55.662Z,60.61
2023-11-05T21:09:22.578Z,61.03
2023-11-05T21:11:50.011Z,61.28
2023-11-05T21:14:16.763Z,61.12
2023-11-05T21:16:43.560Z,61.37
2023-11-05T21:19:10.262Z,61.91
2023-11-05T21:21:37.007Z,61.45
2023-11-05T21:24:03.890Z,62.29
2023-11-05T21:26:30.549Z,63.15
2023-11-05T21:28:58.564Z,62.58
2023-11-05T21:31:25.571Z,63.21
2023-11-05T21:33:52.841Z,62.70
2023-11-05T21:36:19.574Z,62.90
2023-11-05T21:38:46.318Z,63.68
2023-11-05T21:41:19.994Z,62.94
2023-11-05T21:43:46.945Z,62.99
2023-11-05T21:46:14.824Z,62.81
2023-11-05T21:48:42.565Z,62.90
2023-11-05T21:51:09.337Z,62.71
2023-11-05T21:53:36.097Z,62.55
2023-11-05T21:56:02.925Z,63.57
2023-11-05T21:58:29.774Z,63.19
2023-11-05T22:00:56.513Z,63.74
2023-11-05T22:03:23.225Z,63.75
2023-11-05T22:05:50.114Z,64.25
2023-11-05T22:08:17.031Z,64.59
2023-11-05T22:10:43.804Z,65.92
2023-11-05T22:13:11.083Z,64.69
2023-11-05T22:15:37.776Z,64.67
2023-11-05T22:18:04.608Z,64.80
2023-11-05T22:20:31.408Z,65.08
2023-11-05T22:22:58.160Z,64.96
2023-11-05T22:25:24.939Z,64.89
2023-11-05T22:27:51.690Z,64.53
2023-11-05T22:30:18.641Z,64.65
2023-11-05T22:32:45.365Z,64.56
2023-11-05T22:35:12.157Z,64.46
2023-11-05T22:37:38.988Z,65.11
2023-11-05T22:40:07.228Z,65.03
2023-11-05T22:42:34.086Z,64.66
2023-11-05T22:45:00.793Z,65.17
2023-11-05T22:47:27.848Z,64.60
2023-11-05T22:49:54.667Z,64.79
2023-11-05T22:52:21.969Z,65.11
2023-11-05T22:54:48.724Z,64.93
2023-11-05T22:57:15.420Z,63.96
2023-11-05T22:59:42.453Z,64.77
2023-11-05T23:02:09.261Z,65.97
2023-11-05T23:04:36.850Z,72.01
2023-11-05T23:07:03.804Z,79.47
2023-11-05T23:09:30.896Z,86.48
2023-11-05T23:11:57.686Z,88.91
2023-11-05T23:14:24.473Z,93.32
2023-11-05T23:16:51.183Z,92.39
2023-11-05T23:19:19.490Z,93.13
2023-11-05T23:21:47.413Z,92.95
2023-11-05T23:24:14.214Z,91.17
2023-11-05T23:26:42.222Z,92.99
2023-11-05T23:29:13.701Z,93.46
2023-11-05T23:31:42.562Z,94.98
2023-11-05T23:34:12.090Z,94.86
2023-11-05T23:36:39.747Z,97.17
2023-11-05T23:39:08.665Z,97.61
2023-11-05T23:41:35.383Z,95.47
2023-11-05T23:44:02.238Z,95.33
2023-11-05T23:46:28.903Z,97.69
2023-11-05T23:48:55.605Z,98.48
2023-11-05T23:51:22.246Z,99.72
2023-11-05T23:53:48.957Z,100.00
2023-11-05T23:56:17.033Z,99.54
2023-11-05T23:58:44.761Z,99.53
